createdAt,value
2018-07-20T00:00:42.165Z,48.50
2018-07-20T00:01:13.878Z,48.20
2018-07-20T00:01:45.601Z,48.50
2018-07-20T00:02:17.337Z,48.70
2018-07-20T00:02:49.056Z,48.40
2018-07-20T00:03:20.777Z,48.20
2018-07-20T00:03:52.498Z,48.70
2018-07-20T00:04:24.220Z,48.50
2018-07-20T00:04:55.953Z,48.30
2018-07-20T00:05:27.711Z,48.40
2018-07-20T00:05:59.445Z,48.40
2018-07-20T00:06:31.165Z,48.20
2018-07-20T00:07:02.893Z,48.60
2018-07-20T00:07:34.613Z,48.30
2018-07-20T00:08:06.397Z,48.70
2018-07-20T00:08:38.265Z,48.60
2018-07-20T00:09:10.021Z,48.60
2018-07-20T00:09:41.732Z,48.60
2018-07-20T00:10:13.467Z,48.40
2018-07-20T00:10:45.324Z,48.40
2018-07-20T00:11:17.010Z,48.50
2018-07-20T00:11:48.732Z,48.60
2018-07-20T00:12:20.472Z,48.90
2018-07-20T00:12:52.392Z,48.70
2018-07-20T00:13:24.145Z,48.60
2018-07-20T00:13:55.840Z,48.90
2018-07-20T00:14:27.583Z,48.50
2018-07-20T00:14:59.305Z,49.00
2018-07-20T00:15:31.024Z,48.70
2018-07-20T00:16:02.754Z,48.80
2018-07-20T00:16:34.510Z,48.50
2018-07-20T00:17:06.234Z,48.50
2018-07-20T00:17:37.959Z,48.60
2018-07-20T00:18:09.702Z,48.30
2018-07-20T00:18:41.425Z,48.60
2018-07-20T00:19:13.148Z,48.50
2018-07-20T00:19:44.880Z,48.60
2018-07-20T00:20:16.609Z,48.50
2018-07-20T00:20:48.428Z,48.50
2018-07-20T00:21:20.186Z,48.30
2018-07-20T00:21:51.913Z,48.30
2018-07-20T00:22:23.854Z,48.80
2018-07-20T00:22:55.567Z,48.50
2018-07-20T00:23:27.293Z,48.60
2018-07-20T00:23:59.024Z,48.70
2018-07-20T00:24:30.766Z,48.50
2018-07-20T00:25:02.486Z,48.70
2018-07-20T00:25:34.230Z,48.50
2018-07-20T00:27:10.089Z,48.50
2018-07-20T00:27:41.820Z,48.20
2018-07-20T00:28:13.544Z,48.40
2018-07-20T00:28:45.277Z,48.20
2018-07-20T00:29:17.015Z,48.50
2018-07-20T00:29:48.735Z,48.50
2018-07-20T00:30:20.475Z,48.40
2018-07-20T00:30:52.397Z,48.50
2018-07-20T00:31:24.124Z,48.60
2018-07-20T00:31:55.855Z,48.30
2018-07-20T00:32:27.568Z,48.30
2018-07-20T00:32:59.407Z,48.60
2018-07-20T00:33:31.098Z,48.60
2018-07-20T00:34:02.894Z,48.50
2018-07-20T00:34:34.642Z,48.50
2018-07-20T00:35:06.377Z,48.30
2018-07-20T00:35:38.209Z,48.70
2018-07-20T00:36:09.941Z,48.60
2018-07-20T00:36:41.782Z,48.70
2018-07-20T00:37:14.599Z,48.60
2018-07-20T00:38:18.718Z,48.50
2018-07-20T00:38:50.447Z,48.60
2018-07-20T00:39:22.171Z,48.90
2018-07-20T00:39:53.923Z,48.70
2018-07-20T00:40:25.650Z,48.80
2018-07-20T00:40:57.374Z,48.70
2018-07-20T00:41:29.099Z,48.80
2018-07-20T00:42:00.839Z,48.70
2018-07-20T00:42:32.547Z,48.50
2018-07-20T00:43:04.285Z,48.40
2018-07-20T00:43:35.998Z,48.80
2018-07-20T00:44:07.713Z,48.80
2018-07-20T00:44:39.442Z,48.70
2018-07-20T00:45:11.173Z,48.90
2018-07-20T00:45:42.967Z,48.60
2018-07-20T00:46:14.702Z,48.60
2018-07-20T00:46:46.443Z,48.80
2018-07-20T00:47:18.146Z,48.60
2018-07-20T00:47:49.895Z,48.60
2018-07-20T00:48:21.603Z,48.90
2018-07-20T00:48:53.326Z,49.00
2018-07-20T00:49:25.052Z,48.70
2018-07-20T00:49:56.981Z,48.70
2018-07-20T00:50:28.698Z,49.00
2018-07-20T00:51:00.441Z,48.80
2018-07-20T00:51:32.166Z,48.80
2018-07-20T00:52:03.958Z,49.00
2018-07-20T00:52:35.689Z,48.70
2018-07-20T00:53:07.414Z,48.60
2018-07-20T00:53:39.164Z,48.90
2018-07-20T00:54:10.882Z,48.80
2018-07-20T00:55:14.615Z,48.90
2018-07-20T00:55:46.338Z,48.90
2018-07-20T00:56:18.082Z,48.80
2018-07-20T00:56:49.811Z,49.00
2018-07-20T00:57:21.538Z,48.90
2018-07-20T00:57:53.259Z,49.00
2018-07-20T00:58:25.038Z,49.20
2018-07-20T00:58:56.765Z,48.90
2018-07-20T00:59:28.505Z,48.80
2018-07-20T01:00:00.356Z,49.20
2018-07-20T01:00:32.079Z,49.10
2018-07-20T01:01:03.793Z,49.00
2018-07-20T01:01:35.538Z,49.00
2018-07-20T01:02:07.771Z,49.00
2018-07-20T01:02:39.461Z,49.20
2018-07-20T01:03:11.196Z,49.00
2018-07-20T01:03:42.921Z,48.90
2018-07-20T01:04:14.645Z,48.90
2018-07-20T01:04:46.379Z,48.70
2018-07-20T01:05:18.097Z,48.70
2018-07-20T01:05:49.852Z,48.80
2018-07-20T01:06:21.637Z,48.90
2018-07-20T01:06:53.358Z,48.80
2018-07-20T01:07:25.075Z,48.90
2018-07-20T01:07:56.807Z,48.80
2018-07-20T01:08:28.532Z,49.40
2018-07-20T01:09:00.264Z,48.90
2018-07-20T01:09:31.985Z,48.90
2018-07-20T01:10:03.727Z,49.00
2018-07-20T01:10:35.429Z,48.80
2018-07-20T01:11:07.162Z,48.70
2018-07-20T01:11:38.892Z,48.70
2018-07-20T01:12:10.617Z,49.00
2018-07-20T01:13:14.337Z,48.90
2018-07-20T01:13:46.061Z,48.80
2018-07-20T01:14:17.794Z,49.20
2018-07-20T01:14:49.513Z,49.00
2018-07-20T01:15:21.233Z,49.00
2018-07-20T01:15:52.958Z,48.80
2018-07-20T01:16:24.682Z,48.80
2018-07-20T01:16:56.407Z,48.70
2018-07-20T01:17:28.142Z,49.00
2018-07-20T01:17:59.875Z,48.80
2018-07-20T01:18:31.658Z,49.00
2018-07-20T01:19:03.374Z,48.90
2018-07-20T01:20:07.142Z,49.20
2018-07-20T01:20:38.877Z,48.90
2018-07-20T01:21:10.609Z,48.90
2018-07-20T01:21:42.332Z,48.80
2018-07-20T01:22:14.063Z,48.70
2018-07-20T01:22:45.791Z,48.70
2018-07-20T01:23:17.500Z,48.80
2018-07-20T01:23:49.225Z,48.90
2018-07-20T01:24:20.962Z,48.90
2018-07-20T01:24:52.687Z,48.80
2018-07-20T01:25:24.417Z,48.90
2018-07-20T01:25:56.135Z,48.80
2018-07-20T01:26:27.863Z,48.70
2018-07-20T01:26:59.594Z,48.70
2018-07-20T01:27:31.305Z,49.00
2018-07-20T01:28:03.045Z,48.90
2018-07-20T01:28:34.782Z,48.90
2018-07-20T01:29:06.525Z,49.00
2018-07-20T01:29:38.257Z,48.90
2018-07-20T01:30:09.978Z,49.00
2018-07-20T01:30:41.703Z,48.90
2018-07-20T01:31:13.459Z,48.90
2018-07-20T01:31:45.174Z,49.00
2018-07-20T01:32:16.909Z,49.00
2018-07-20T01:32:48.642Z,49.20
2018-07-20T01:33:20.382Z,49.20
2018-07-20T01:33:52.117Z,48.90
2018-07-20T01:34:23.828Z,49.00
2018-07-20T01:34:55.564Z,48.90
2018-07-20T01:35:27.493Z,48.90
2018-07-20T01:35:59.242Z,49.40
2018-07-20T01:36:30.965Z,49.20
2018-07-20T01:37:02.707Z,48.90
2018-07-20T01:37:34.433Z,49.00
2018-07-20T01:38:06.201Z,48.90
2018-07-20T01:38:37.930Z,48.90
2018-07-20T01:39:09.653Z,48.90
2018-07-20T01:39:41.384Z,49.00
2018-07-20T01:40:13.102Z,49.20
2018-07-20T01:40:44.825Z,49.20
2018-07-20T01:41:16.562Z,49.00
2018-07-20T01:41:48.306Z,49.00
2018-07-20T01:42:20.055Z,49.00
2018-07-20T01:42:51.774Z,49.30
2018-07-20T01:43:23.563Z,49.20
2018-07-20T01:43:55.264Z,49.10
2018-07-20T01:44:26.990Z,49.20
2018-07-20T01:44:58.719Z,49.00
2018-07-20T01:45:30.450Z,49.00
2018-07-20T01:46:02.190Z,49.30
2018-07-20T01:46:33.921Z,49.10
2018-07-20T01:47:05.674Z,49.10
2018-07-20T01:47:37.406Z,49.20
2018-07-20T01:48:09.131Z,49.10
2018-07-20T01:48:40.858Z,50.00
2018-07-20T01:49:12.587Z,49.10
2018-07-20T01:49:44.313Z,49.10
2018-07-20T01:50:16.036Z,49.10
2018-07-20T01:50:47.761Z,49.30
2018-07-20T01:51:19.489Z,49.30
2018-07-20T01:51:51.227Z,49.70
2018-07-20T01:52:22.941Z,49.20
2018-07-20T01:52:54.670Z,49.30
2018-07-20T01:53:26.421Z,49.00
2018-07-20T01:53:58.137Z,49.10
2018-07-20T01:54:29.866Z,49.20
2018-07-20T01:55:01.608Z,49.30
2018-07-20T01:55:33.342Z,49.20
2018-07-20T01:56:05.073Z,49.60
2018-07-20T01:56:36.809Z,49.10
2018-07-20T01:57:08.586Z,49.30
2018-07-20T01:57:40.318Z,49.30
2018-07-20T01:58:12.049Z,49.10
2018-07-20T01:58:43.836Z,49.20
2018-07-20T01:59:15.571Z,49.20
2018-07-20T01:59:47.302Z,49.30
2018-07-20T02:00:51.014Z,48.70
2018-07-20T02:01:22.761Z,49.20
2018-07-20T02:01:54.483Z,50.00
2018-07-20T02:02:26.216Z,49.30
2018-07-20T02:02:57.936Z,49.20
2018-07-20T02:03:29.669Z,49.20
2018-07-20T02:04:01.382Z,49.30
2018-07-20T02:04:33.112Z,49.50
2018-07-20T02:05:04.858Z,49.20
2018-07-20T02:05:36.568Z,49.40
2018-07-20T02:06:08.325Z,49.20
2018-07-20T02:06:40.066Z,49.20
2018-07-20T02:07:11.802Z,49.60
2018-07-20T02:07:43.585Z,49.20
2018-07-20T02:08:15.367Z,49.10
2018-07-20T02:08:47.060Z,49.60
2018-07-20T02:09:18.845Z,49.20
2018-07-20T02:09:50.551Z,49.40
2018-07-20T02:10:22.282Z,49.30
2018-07-20T02:10:54.034Z,49.10
2018-07-20T02:11:25.762Z,49.20
2018-07-20T02:11:57.493Z,49.30
2018-07-20T02:12:29.282Z,49.30
2018-07-20T02:13:01.015Z,49.20
2018-07-20T02:13:32.734Z,49.30
2018-07-20T02:14:04.462Z,49.40
2018-07-20T02:14:36.241Z,49.20
2018-07-20T02:15:07.983Z,49.20
2018-07-20T02:15:39.693Z,49.20
2018-07-20T02:16:11.637Z,49.20
2018-07-20T02:16:43.346Z,49.20
2018-07-20T02:17:15.073Z,49.20
2018-07-20T02:17:46.800Z,48.70
2018-07-20T02:18:18.524Z,49.30
2018-07-20T02:18:50.251Z,49.30
2018-07-20T02:19:21.973Z,49.30
2018-07-20T02:19:53.713Z,49.30
2018-07-20T02:20:25.441Z,49.20
2018-07-20T02:20:57.166Z,49.20
2018-07-20T02:21:28.970Z,49.30
2018-07-20T02:22:00.854Z,49.20
2018-07-20T02:22:32.607Z,49.30
2018-07-20T02:23:04.345Z,49.40
2018-07-20T02:23:36.088Z,49.30
2018-07-20T02:24:07.840Z,49.50
2018-07-20T02:24:39.573Z,49.30
2018-07-20T02:25:11.306Z,49.20
2018-07-20T02:25:43.045Z,49.20
2018-07-20T02:26:14.767Z,49.50
2018-07-20T02:26:46.482Z,49.60
2018-07-20T02:27:18.221Z,49.30
2018-07-20T02:27:49.949Z,49.90
2018-07-20T02:28:21.678Z,49.30
2018-07-20T02:28:53.405Z,49.60
2018-07-20T02:29:25.178Z,49.30
2018-07-20T02:29:57.070Z,49.30
2018-07-20T02:30:28.805Z,49.30
2018-07-20T02:31:00.581Z,49.40
2018-07-20T02:31:32.493Z,49.40
2018-07-20T02:32:04.228Z,49.40
2018-07-20T02:32:35.957Z,49.50
2018-07-20T02:33:07.685Z,49.70
2018-07-20T02:33:39.418Z,49.60
2018-07-20T02:34:11.154Z,49.40
2018-07-20T02:34:42.883Z,49.30
2018-07-20T02:35:14.599Z,49.40
2018-07-20T02:35:46.335Z,49.50
2018-07-20T02:36:18.064Z,49.00
2018-07-20T02:36:49.982Z,49.30
2018-07-20T02:37:21.713Z,49.40
2018-07-20T02:37:53.441Z,49.50
2018-07-20T02:38:25.370Z,49.40
2018-07-20T02:38:57.094Z,49.50
2018-07-20T02:39:28.841Z,49.50
2018-07-20T02:40:00.709Z,49.40
2018-07-20T02:40:32.430Z,49.40
2018-07-20T02:41:04.161Z,49.70
2018-07-20T02:41:35.934Z,50.00
2018-07-20T02:42:07.662Z,49.40
2018-07-20T02:42:39.395Z,49.50
2018-07-20T02:43:11.127Z,49.40
2018-07-20T02:43:43.060Z,49.40
2018-07-20T02:44:14.787Z,49.60
2018-07-20T02:45:18.749Z,49.40
2018-07-20T02:45:50.841Z,49.40
2018-07-20T02:46:22.840Z,49.40
2018-07-20T02:46:54.712Z,49.50
2018-07-20T02:47:26.461Z,49.40
2018-07-20T02:47:58.194Z,48.90
2018-07-20T02:48:29.917Z,49.30
2018-07-20T02:49:01.655Z,49.30
2018-07-20T02:49:33.580Z,49.40
2018-07-20T02:50:05.390Z,49.30
2018-07-20T02:50:37.115Z,49.30
2018-07-20T02:51:08.873Z,49.30
2018-07-20T02:51:40.601Z,49.40
2018-07-20T02:52:12.326Z,49.40
2018-07-20T02:52:44.078Z,49.30
2018-07-20T02:53:16.006Z,49.50
2018-07-20T02:53:47.752Z,49.60
2018-07-20T02:54:19.483Z,49.50
2018-07-20T02:54:51.213Z,49.60
2018-07-20T02:55:22.945Z,49.60
2018-07-20T02:55:54.667Z,49.60
2018-07-20T02:56:26.389Z,49.60
2018-07-20T02:56:58.113Z,49.40
2018-07-20T02:57:29.846Z,49.50
2018-07-20T02:58:01.582Z,49.40
2018-07-20T02:58:33.304Z,49.40
2018-07-20T02:59:05.044Z,49.40
2018-07-20T03:00:09.056Z,50.30
2018-07-20T03:00:40.773Z,49.50
2018-07-20T03:01:12.522Z,49.60
2018-07-20T03:01:44.250Z,49.60
2018-07-20T03:02:15.986Z,49.70
2018-07-20T03:02:47.715Z,49.70
2018-07-20T03:03:19.438Z,49.70
2018-07-20T03:03:51.169Z,49.70
2018-07-20T03:04:22.895Z,49.70
2018-07-20T03:04:54.620Z,49.60
2018-07-20T03:05:26.335Z,49.60
2018-07-20T03:05:58.058Z,49.60
2018-07-20T03:06:29.796Z,49.60
2018-07-20T03:07:01.522Z,49.70
2018-07-20T03:07:33.456Z,49.80
2018-07-20T03:08:05.177Z,49.70
2018-07-20T03:08:36.907Z,49.60
2018-07-20T03:09:08.698Z,49.60
2018-07-20T03:09:40.588Z,49.60
2018-07-20T03:10:12.314Z,49.60
2018-07-20T03:11:16.027Z,49.60
2018-07-20T03:11:47.740Z,49.60
2018-07-20T03:12:19.459Z,49.70
2018-07-20T03:12:51.187Z,49.70
2018-07-20T03:13:22.901Z,49.80
2018-07-20T03:13:54.642Z,49.70
2018-07-20T03:14:26.583Z,49.70
2018-07-20T03:14:58.309Z,49.80
2018-07-20T03:15:30.042Z,49.80
2018-07-20T03:16:01.761Z,49.90
2018-07-20T03:16:33.495Z,49.50
2018-07-20T03:17:05.202Z,49.80
2018-07-20T03:17:36.954Z,49.90
2018-07-20T03:18:08.668Z,49.90
2018-07-20T03:18:40.599Z,49.90
2018-07-20T03:19:12.313Z,49.90
2018-07-20T03:19:44.037Z,50.50
2018-07-20T03:20:15.953Z,49.80
2018-07-20T03:20:47.693Z,50.00
2018-07-20T03:21:51.449Z,49.80
2018-07-20T03:22:23.199Z,49.90
2018-07-20T03:22:54.953Z,49.80
2018-07-20T03:23:26.669Z,49.80
2018-07-20T03:23:58.418Z,49.80
2018-07-20T03:24:30.130Z,49.80
2018-07-20T03:25:01.856Z,49.80
2018-07-20T03:25:33.582Z,49.70
2018-07-20T03:26:05.315Z,49.80
2018-07-20T03:26:37.052Z,49.80
2018-07-20T03:27:08.771Z,49.80
2018-07-20T03:27:40.480Z,49.90
2018-07-20T03:28:12.210Z,49.80
2018-07-20T03:28:43.917Z,49.90
2018-07-20T03:29:15.677Z,50.00
2018-07-20T03:29:47.405Z,50.00
2018-07-20T03:30:19.132Z,49.90
2018-07-20T03:30:50.865Z,49.90
2018-07-20T03:31:22.607Z,49.90
2018-07-20T03:31:54.321Z,49.90
2018-07-20T03:32:26.038Z,50.00
2018-07-20T03:32:57.874Z,49.90
2018-07-20T03:33:29.717Z,49.90
2018-07-20T03:34:01.485Z,49.90
2018-07-20T03:34:33.213Z,49.90
2018-07-20T03:35:04.933Z,49.90
2018-07-20T03:35:36.926Z,49.90
2018-07-20T03:36:08.668Z,50.00
2018-07-20T03:36:40.379Z,49.90
2018-07-20T03:37:12.102Z,49.90
2018-07-20T03:37:43.829Z,49.90
2018-07-20T03:38:15.542Z,50.50
2018-07-20T03:38:47.264Z,49.90
2018-07-20T03:39:18.999Z,49.90
2018-07-20T03:39:50.728Z,50.70
2018-07-20T03:40:22.460Z,50.10
2018-07-20T03:40:54.182Z,50.10
2018-07-20T03:41:25.910Z,50.10
2018-07-20T03:41:57.633Z,50.20
2018-07-20T03:42:29.386Z,50.20
2018-07-20T03:43:01.098Z,50.10
2018-07-20T03:43:33.031Z,50.10
2018-07-20T03:44:04.754Z,50.20
2018-07-20T03:44:36.473Z,50.20
2018-07-20T03:45:08.206Z,50.10
2018-07-20T03:45:39.937Z,50.10
2018-07-20T03:46:11.669Z,50.20
2018-07-20T03:46:43.395Z,50.20
2018-07-20T03:47:15.119Z,50.20
2018-07-20T03:47:46.845Z,50.20
2018-07-20T03:48:18.570Z,50.30
2018-07-20T03:48:50.300Z,50.20
2018-07-20T03:49:22.258Z,50.30
2018-07-20T03:49:54.034Z,50.20
2018-07-20T03:50:25.769Z,50.20
2018-07-20T03:50:57.496Z,50.10
2018-07-20T03:51:29.219Z,50.30
2018-07-20T03:52:00.945Z,50.20
2018-07-20T03:52:32.666Z,50.20
2018-07-20T03:53:04.397Z,50.20
2018-07-20T03:53:36.110Z,50.20
2018-07-20T03:54:07.834Z,50.20
2018-07-20T03:54:39.569Z,50.40
2018-07-20T03:55:11.326Z,50.30
2018-07-20T03:55:43.047Z,50.30
2018-07-20T03:56:14.779Z,50.30
2018-07-20T03:57:18.527Z,50.40
2018-07-20T03:57:50.256Z,50.40
2018-07-20T03:58:21.978Z,50.50
2018-07-20T03:58:53.701Z,50.40
2018-07-20T03:59:57.456Z,50.50
2018-07-20T04:00:29.185Z,50.50
2018-07-20T04:01:00.910Z,50.60
2018-07-20T04:01:32.633Z,50.40
2018-07-20T04:02:04.373Z,50.40
2018-07-20T04:02:36.110Z,50.40
2018-07-20T04:03:07.817Z,50.50
2018-07-20T04:03:39.542Z,50.50
2018-07-20T04:04:11.343Z,50.40
2018-07-20T04:04:43.080Z,50.50
2018-07-20T04:05:14.822Z,50.50
2018-07-20T04:05:46.585Z,50.60
2018-07-20T04:06:18.304Z,50.40
2018-07-20T04:06:50.028Z,50.50
2018-07-20T04:07:21.769Z,50.50
2018-07-20T04:07:53.501Z,50.50
2018-07-20T04:08:25.220Z,50.40
2018-07-20T04:08:57.005Z,50.30
2018-07-20T04:09:28.704Z,50.40
2018-07-20T04:10:32.421Z,50.40
2018-07-20T04:11:04.146Z,50.40
2018-07-20T04:11:35.883Z,50.40
2018-07-20T04:12:07.606Z,50.30
2018-07-20T04:12:39.321Z,50.40
2018-07-20T04:13:11.075Z,50.40
2018-07-20T04:13:42.806Z,50.30
2018-07-20T04:14:14.528Z,50.40
2018-07-20T04:14:46.294Z,50.50
2018-07-20T04:15:18.014Z,50.50
2018-07-20T04:15:49.752Z,50.50
2018-07-20T04:16:21.473Z,50.60
2018-07-20T04:16:53.182Z,50.50
2018-07-20T04:17:24.917Z,52.30
2018-07-20T04:17:56.662Z,52.40
2018-07-20T04:18:28.396Z,52.50
2018-07-20T04:19:00.123Z,53.20
2018-07-20T04:19:31.854Z,53.40
2018-07-20T04:20:35.601Z,53.90
2018-07-20T04:21:07.326Z,53.50
2018-07-20T04:21:39.047Z,54.20
2018-07-20T04:22:10.770Z,54.10
2018-07-20T04:22:42.505Z,54.30
2018-07-20T04:23:46.214Z,53.70
2018-07-20T04:24:17.940Z,53.70
2018-07-20T04:24:49.679Z,54.00
2018-07-20T04:25:21.394Z,53.40
2018-07-20T04:25:53.117Z,53.80
2018-07-20T04:26:24.861Z,54.10
2018-07-20T04:26:56.589Z,54.10
2018-07-20T04:27:28.511Z,53.90
2018-07-20T04:28:00.314Z,53.90
2018-07-20T04:28:32.045Z,54.30
2018-07-20T04:29:03.769Z,54.40
2018-07-20T04:29:35.492Z,54.10
2018-07-20T04:30:07.379Z,54.30
2018-07-20T04:30:39.061Z,54.20
2018-07-20T04:31:11.175Z,54.20
2018-07-20T04:31:42.881Z,54.20
2018-07-20T04:32:14.638Z,54.20
2018-07-20T04:32:46.365Z,54.50
2018-07-20T04:33:18.105Z,54.20
2018-07-20T04:33:49.834Z,54.30
2018-07-20T04:34:21.574Z,54.20
2018-07-20T04:34:53.303Z,54.20
2018-07-20T04:35:25.081Z,54.10
2018-07-20T04:35:57.397Z,53.90
2018-07-20T04:36:29.209Z,53.90
2018-07-20T04:37:01.078Z,53.80
2018-07-20T04:37:33.001Z,54.10
2018-07-20T04:38:04.725Z,54.00
2018-07-20T04:38:36.455Z,53.70
2018-07-20T04:39:08.199Z,53.10
2018-07-20T04:39:40.131Z,53.50
2018-07-20T04:40:11.881Z,53.50
2018-07-20T04:40:43.683Z,53.50
2018-07-20T04:41:15.402Z,53.60
2018-07-20T04:41:47.121Z,53.70
2018-07-20T04:42:18.848Z,53.70
2018-07-20T04:42:50.593Z,53.60
2018-07-20T04:43:22.291Z,53.60
2018-07-20T04:43:54.131Z,53.80
2018-07-20T04:44:25.961Z,53.70
2018-07-20T04:44:57.678Z,53.50
2018-07-20T04:45:29.393Z,53.70
2018-07-20T04:46:01.278Z,53.60
2018-07-20T04:46:33.017Z,53.70
2018-07-20T04:47:04.731Z,53.70
2018-07-20T04:47:36.453Z,53.70
2018-07-20T04:48:08.173Z,53.80
2018-07-20T04:48:39.901Z,53.90
2018-07-20T04:49:11.634Z,53.70
2018-07-20T04:49:43.364Z,53.80
2018-07-20T04:50:15.122Z,53.70
2018-07-20T04:50:46.842Z,53.60
2018-07-20T04:51:18.565Z,53.60
2018-07-20T04:51:50.304Z,53.60
2018-07-20T04:52:22.019Z,53.60
2018-07-20T04:52:53.745Z,53.60
2018-07-20T04:53:25.466Z,53.60
2018-07-20T04:53:57.203Z,53.60
2018-07-20T04:54:28.947Z,53.50
2018-07-20T04:55:00.662Z,53.50
2018-07-20T04:55:32.397Z,53.50
2018-07-20T04:56:04.148Z,53.50
2018-07-20T04:56:36.184Z,53.50
2018-07-20T04:57:07.900Z,53.30
2018-07-20T04:57:39.672Z,53.30
2018-07-20T04:58:11.411Z,53.20
2018-07-20T04:58:43.150Z,53.20
2018-07-20T04:59:15.070Z,53.20
2018-07-20T04:59:46.777Z,53.30
2018-07-20T05:00:18.698Z,52.90
2018-07-20T05:00:50.454Z,52.90
2018-07-20T05:01:22.185Z,52.80
2018-07-20T05:01:53.906Z,52.90
2018-07-20T05:02:25.655Z,53.00
2018-07-20T05:02:57.397Z,53.00
2018-07-20T05:03:29.134Z,53.10
2018-07-20T05:04:00.853Z,53.20
2018-07-20T05:04:32.578Z,53.20
2018-07-20T05:05:04.307Z,53.20
2018-07-20T05:05:36.042Z,53.20
2018-07-20T05:06:07.782Z,53.20
2018-07-20T05:06:39.521Z,52.70
2018-07-20T05:07:11.262Z,53.10
2018-07-20T05:07:43.025Z,53.10
2018-07-20T05:08:14.765Z,53.10
2018-07-20T05:08:46.508Z,53.00
2018-07-20T05:09:18.232Z,53.00
2018-07-20T05:09:49.957Z,53.10
2018-07-20T05:10:21.734Z,53.10
2018-07-20T05:10:53.473Z,53.10
2018-07-20T05:11:25.276Z,53.10
2018-07-20T05:11:57.142Z,53.30
2018-07-20T05:12:28.869Z,53.30
2018-07-20T05:13:00.606Z,53.30
2018-07-20T05:13:32.319Z,53.30
2018-07-20T05:14:04.048Z,53.50
2018-07-20T05:14:35.782Z,53.90
2018-07-20T05:15:07.513Z,53.50
2018-07-20T05:15:39.240Z,53.50
2018-07-20T05:16:10.961Z,53.50
2018-07-20T05:16:42.681Z,53.50
2018-07-20T05:17:14.399Z,53.30
2018-07-20T05:17:46.129Z,53.30
2018-07-20T05:18:17.869Z,53.30
2018-07-20T05:18:49.586Z,53.30
2018-07-20T05:19:21.313Z,53.30
2018-07-20T05:19:53.037Z,53.40
2018-07-20T05:20:24.770Z,53.40
2018-07-20T05:20:56.505Z,53.40
2018-07-20T05:21:28.238Z,53.50
2018-07-20T05:21:59.965Z,53.50
2018-07-20T05:22:31.691Z,53.40
2018-07-20T05:23:03.411Z,53.40
2018-07-20T05:23:35.129Z,53.40
2018-07-20T05:24:07.066Z,53.70
2018-07-20T05:24:38.976Z,53.40
2018-07-20T05:25:10.701Z,53.50
2018-07-20T05:25:42.442Z,53.50
2018-07-20T05:26:14.165Z,53.50
2018-07-20T05:26:45.889Z,53.80
2018-07-20T05:27:17.625Z,53.50
2018-07-20T05:27:49.352Z,53.40
2018-07-20T05:28:21.075Z,53.40
2018-07-20T05:28:52.815Z,53.30
2018-07-20T05:29:24.559Z,53.20
2018-07-20T05:29:56.270Z,53.30
2018-07-20T05:30:28.361Z,53.30
2018-07-20T05:31:00.082Z,53.30
2018-07-20T05:31:31.997Z,53.30
2018-07-20T05:32:03.945Z,53.30
2018-07-20T05:32:35.705Z,53.20
2018-07-20T05:33:07.598Z,53.30
2018-07-20T05:33:39.321Z,53.30
2018-07-20T05:34:11.054Z,53.30
2018-07-20T05:34:42.785Z,52.80
2018-07-20T05:35:14.517Z,53.30
2018-07-20T05:35:46.253Z,53.30
2018-07-20T05:36:18.015Z,53.30
2018-07-20T05:36:49.744Z,53.40
2018-07-20T05:37:21.466Z,53.40
2018-07-20T05:37:53.187Z,53.30
2018-07-20T05:38:24.926Z,53.30
2018-07-20T05:38:56.669Z,53.30
2018-07-20T05:40:00.431Z,53.40
2018-07-20T05:40:32.173Z,53.30
2018-07-20T05:41:03.922Z,53.30
2018-07-20T05:41:35.681Z,53.40
2018-07-20T05:42:07.883Z,53.40
2018-07-20T05:42:39.576Z,53.40
2018-07-20T05:43:11.293Z,53.40
2018-07-20T05:43:43.034Z,53.50
2018-07-20T05:44:14.816Z,53.30
2018-07-20T05:44:46.539Z,53.30
2018-07-20T05:45:18.270Z,53.20
2018-07-20T05:45:50.017Z,53.10
2018-07-20T05:46:21.747Z,53.20
2018-07-20T05:46:53.486Z,53.20
2018-07-20T05:47:25.203Z,53.00
2018-07-20T05:47:56.934Z,53.20
2018-07-20T05:48:28.665Z,53.10
2018-07-20T05:49:00.383Z,53.70
2018-07-20T05:49:32.208Z,53.20
2018-07-20T05:50:03.898Z,53.20
2018-07-20T05:50:35.628Z,53.00
2018-07-20T05:51:07.366Z,52.70
2018-07-20T05:51:39.091Z,52.60
2018-07-20T05:52:10.809Z,52.60
2018-07-20T05:52:42.530Z,52.60
2018-07-20T05:53:14.253Z,52.70
2018-07-20T05:53:45.988Z,53.30
2018-07-20T05:54:17.756Z,52.90
2018-07-20T05:54:49.485Z,52.90
2018-07-20T05:55:21.218Z,52.80
2018-07-20T05:55:52.961Z,52.80
2018-07-20T05:56:24.695Z,52.70
2018-07-20T05:56:56.427Z,52.70
2018-07-20T05:57:28.154Z,52.70
2018-07-20T05:57:59.878Z,52.70
2018-07-20T05:58:31.629Z,52.80
2018-07-20T05:59:03.333Z,52.90
2018-07-20T05:59:35.060Z,52.80
2018-07-20T06:00:06.786Z,52.80
2018-07-20T06:00:38.507Z,52.80
2018-07-20T06:01:10.283Z,52.90
2018-07-20T06:01:41.999Z,52.80
2018-07-20T06:02:13.754Z,52.70
2018-07-20T06:02:45.487Z,52.80
2018-07-20T06:03:17.217Z,52.80
2018-07-20T06:03:48.933Z,53.30
2018-07-20T06:04:20.668Z,53.40
2018-07-20T06:04:52.405Z,52.80
2018-07-20T06:05:24.142Z,52.90
2018-07-20T06:05:55.879Z,52.90
2018-07-20T06:06:27.596Z,52.80
2018-07-20T06:06:59.314Z,52.70
2018-07-20T06:07:31.049Z,52.70
2018-07-20T06:08:02.797Z,52.70
2018-07-20T06:08:34.596Z,52.70
2018-07-20T06:09:06.281Z,52.70
2018-07-20T06:09:38.010Z,52.60
2018-07-20T06:10:09.731Z,52.50
2018-07-20T06:10:41.457Z,52.10
2018-07-20T06:11:13.178Z,52.10
2018-07-20T06:11:44.900Z,52.30
2018-07-20T06:12:16.630Z,52.20
2018-07-20T06:12:48.361Z,52.30
2018-07-20T06:13:20.097Z,52.40
2018-07-20T06:13:51.831Z,52.50
2018-07-20T06:14:23.551Z,52.50
2018-07-20T06:14:55.265Z,52.40
2018-07-20T06:15:26.990Z,52.30
2018-07-20T06:15:58.721Z,52.30
2018-07-20T06:16:30.435Z,52.20
2018-07-20T06:17:02.185Z,52.00
2018-07-20T06:17:33.955Z,52.10
2018-07-20T06:18:05.681Z,52.00
2018-07-20T06:18:37.413Z,51.70
2018-07-20T06:19:09.135Z,51.40
2018-07-20T06:19:40.860Z,51.30
2018-07-20T06:20:12.581Z,51.00
2018-07-20T06:20:44.310Z,51.60
2018-07-20T06:21:16.042Z,51.70
2018-07-20T06:21:47.759Z,51.60
2018-07-20T06:22:19.482Z,51.70
2018-07-20T06:22:51.208Z,51.70
2018-07-20T06:23:22.947Z,51.70
2018-07-20T06:23:54.787Z,51.80
2018-07-20T06:24:26.653Z,51.80
2018-07-20T06:24:58.385Z,51.70
2018-07-20T06:25:30.119Z,51.50
2018-07-20T06:26:01.841Z,51.40
2018-07-20T06:26:33.566Z,51.40
2018-07-20T06:27:05.338Z,51.40
2018-07-20T06:27:37.069Z,51.20
2018-07-20T06:28:08.792Z,51.10
2018-07-20T06:28:40.523Z,51.10
2018-07-20T06:29:12.247Z,51.00
2018-07-20T06:29:44.015Z,51.00
2018-07-20T06:30:15.909Z,51.00
2018-07-20T06:30:47.639Z,51.00
2018-07-20T06:31:51.389Z,51.10
2018-07-20T06:32:23.125Z,51.80
2018-07-20T06:32:54.867Z,51.10
2018-07-20T06:33:26.586Z,51.00
2018-07-20T06:33:58.326Z,50.90
2018-07-20T06:34:30.039Z,50.80
2018-07-20T06:35:01.766Z,50.90
2018-07-20T06:35:33.489Z,50.90
2018-07-20T06:36:05.209Z,50.80
2018-07-20T06:36:36.960Z,50.60
2018-07-20T06:37:08.688Z,50.60
2018-07-20T06:37:40.418Z,50.70
2018-07-20T06:38:12.222Z,50.50
2018-07-20T06:38:43.957Z,50.60
2018-07-20T06:39:15.674Z,50.50
2018-07-20T06:39:47.399Z,50.50
2018-07-20T06:40:19.125Z,50.60
2018-07-20T06:40:50.872Z,50.60
2018-07-20T06:41:22.807Z,50.50
2018-07-20T06:41:54.526Z,50.70
2018-07-20T06:42:26.242Z,51.00
2018-07-20T06:42:57.971Z,50.80
2018-07-20T06:43:29.698Z,50.80
2018-07-20T06:44:01.404Z,50.80
2018-07-20T06:44:33.137Z,50.80
2018-07-20T06:45:04.872Z,50.80
2018-07-20T06:45:36.661Z,50.60
2018-07-20T06:46:08.397Z,50.60
2018-07-20T06:46:40.114Z,50.50
2018-07-20T06:47:11.838Z,50.50
2018-07-20T06:47:43.595Z,50.70
2018-07-20T06:48:15.310Z,50.80
2018-07-20T06:48:47.037Z,50.60
2018-07-20T06:49:18.771Z,50.60
2018-07-20T06:49:50.510Z,50.40
2018-07-20T06:50:22.425Z,50.50
2018-07-20T06:50:54.153Z,50.50
2018-07-20T06:51:25.921Z,50.40
2018-07-20T06:51:57.717Z,50.40
2018-07-20T06:52:29.426Z,50.30
2018-07-20T06:53:01.163Z,50.40
2018-07-20T06:53:32.890Z,50.40
2018-07-20T06:54:04.623Z,50.50
2018-07-20T06:54:36.349Z,50.60
2018-07-20T06:55:08.066Z,50.50
2018-07-20T06:55:39.813Z,50.50
2018-07-20T06:56:11.536Z,50.40
2018-07-20T06:56:43.280Z,50.40
2018-07-20T06:57:15.010Z,50.40
2018-07-20T06:57:46.782Z,50.20
2018-07-20T06:58:18.494Z,50.30
2018-07-20T06:58:50.229Z,50.30